sensor_id;sensor_type;location;lat;lon;timestamp;P1;durP1;ratioP1;P2;durP2;ratioP2
17310;SDS011;8773;43.300;0.394;2023-02-01T00:00:16;15.50;;;14.00;;
17310;SDS011;8773;43.300;0.394;2023-02-01T00:02:46;16.07;;;14.37;;
17310;SDS011;8773;43.300;0.394;2023-02-01T00:05:14;15.87;;;13.63;;
17310;SDS011;8773;43.300;0.394;2023-02-01T00:07:42;17.00;;;14.90;;
17310;SDS011;8773;43.300;0.394;2023-02-01T00:10:10;16.90;;;15.20;;
17310;SDS011;8773;43.300;0.394;2023-02-01T00:12:40;14.73;;;13.13;;
17310;SDS011;8773;43.300;0.394;2023-02-01T00:15:08;15.57;;;13.53;;
17310;SDS011;8773;43.300;0.394;2023-02-01T00:17:36;16.97;;;15.07;;
17310;SDS011;8773;43.300;0.394;2023-02-01T00:20:05;19.40;;;15.40;;
17310;SDS011;8773;43.300;0.394;2023-02-01T00:22:34;18.47;;;15.80;;
17310;SDS011;8773;43.300;0.394;2023-02-01T00:25:02;16.37;;;14.67;;
17310;SDS011;8773;43.300;0.394;2023-02-01T00:27:31;17.40;;;15.63;;
17310;SDS011;8773;43.300;0.394;2023-02-01T00:30:00;16.80;;;15.20;;
17310;SDS011;8773;43.300;0.394;2023-02-01T00:32:29;16.30;;;14.60;;
17310;SDS011;8773;43.300;0.394;2023-02-01T00:34:58;18.40;;;15.50;;
17310;SDS011;8773;43.300;0.394;2023-02-01T00:37:26;17.00;;;15.20;;
17310;SDS011;8773;43.300;0.394;2023-02-01T00:39:54;19.90;;;16.13;;
17310;SDS011;8773;43.300;0.394;2023-02-01T00:42:22;23.73;;;18.97;;
17310;SDS011;8773;43.300;0.394;2023-02-01T00:44:50;18.20;;;16.13;;
17310;SDS011;8773;43.300;0.394;2023-02-01T00:47:20;16.87;;;14.93;;
17310;SDS011;8773;43.300;0.394;2023-02-01T00:49:48;15.87;;;14.20;;
17310;SDS011;8773;43.300;0.394;2023-02-01T00:52:16;16.23;;;14.47;;
17310;SDS011;8773;43.300;0.394;2023-02-01T00:54:44;17.33;;;15.47;;
17310;SDS011;8773;43.300;0.394;2023-02-01T00:57:12;15.93;;;14.23;;
17310;SDS011;8773;43.300;0.394;2023-02-01T00:59:40;14.73;;;13.20;;
17310;SDS011;8773;43.300;0.394;2023-02-01T01:02:08;15.43;;;13.83;;
17310;SDS011;8773;43.300;0.394;2023-02-01T01:04:38;15.03;;;13.43;;
17310;SDS011;8773;43.300;0.394;2023-02-01T01:07:06;15.57;;;13.80;;
17310;SDS011;8773;43.300;0.394;2023-02-01T01:09:34;16.23;;;14.43;;
17310;SDS011;8773;43.300;0.394;2023-02-01T01:12:02;15.90;;;13.97;;
17310;SDS011;8773;43.300;0.394;2023-02-01T01:14:30;15.73;;;14.13;;
17310;SDS011;8773;43.300;0.394;2023-02-01T01:16:59;15.10;;;13.60;;
17310;SDS011;8773;43.300;0.394;2023-02-01T01:19:27;51.60;;;35.03;;
17310;SDS011;8773;43.300;0.394;2023-02-01T01:21:57;20.43;;;17.87;;
17310;SDS011;8773;43.300;0.394;2023-02-01T01:24:25;17.50;;;15.70;;
17310;SDS011;8773;43.300;0.394;2023-02-01T01:26:53;15.80;;;14.30;;
17310;SDS011;8773;43.300;0.394;2023-02-01T01:29:21;15.93;;;14.27;;
17310;SDS011;8773;43.300;0.394;2023-02-01T01:31:49;16.33;;;14.43;;
17310;SDS011;8773;43.300;0.394;2023-02-01T01:34:17;15.83;;;14.17;;
17310;SDS011;8773;43.300;0.394;2023-02-01T01:36:45;15.13;;;13.63;;
17310;SDS011;8773;43.300;0.394;2023-02-01T01:39:15;14.60;;;13.17;;
17310;SDS011;8773;43.300;0.394;2023-02-01T01:41:43;14.53;;;13.00;;
17310;SDS011;8773;43.300;0.394;2023-02-01T01:47:12;14.50;;;12.60;;
17310;SDS011;8773;43.300;0.394;2023-02-01T01:49:42;13.80;;;12.50;;
17310;SDS011;8773;43.300;0.394;2023-02-01T01:52:11;14.37;;;12.97;;
17310;SDS011;8773;43.300;0.394;2023-02-01T01:54:42;14.97;;;13.30;;
17310;SDS011;8773;43.300;0.394;2023-02-01T01:57:14;14.93;;;13.53;;
17310;SDS011;8773;43.300;0.394;2023-02-01T01:59:46;14.30;;;12.87;;
17310;SDS011;8773;43.300;0.394;2023-02-01T02:02:18;13.57;;;12.23;;
17310;SDS011;8773;43.300;0.394;2023-02-01T02:04:46;14.97;;;12.00;;
17310;SDS011;8773;43.300;0.394;2023-02-01T02:07:16;13.80;;;12.40;;
17310;SDS011;8773;43.300;0.394;2023-02-01T02:09:48;13.70;;;12.37;;
17310;SDS011;8773;43.300;0.394;2023-02-01T02:12:26;13.10;;;11.80;;
17310;SDS011;8773;43.300;0.394;2023-02-01T02:14:54;13.40;;;11.93;;
17310;SDS011;8773;43.300;0.394;2023-02-01T02:17:26;13.20;;;11.80;;
17310;SDS011;8773;43.300;0.394;2023-02-01T02:29:25;11.77;;;10.70;;
17310;SDS011;8773;43.300;0.394;2023-02-01T02:32:26;11.67;;;10.57;;
17310;SDS011;8773;43.300;0.394;2023-02-01T02:35:33;11.10;;;10.10;;
17310;SDS011;8773;43.300;0.394;2023-02-01T02:38:11;11.90;;;10.70;;
17310;SDS011;8773;43.300;0.394;2023-02-01T02:40:48;10.80;;;9.70;;
17310;SDS011;8773;43.300;0.394;2023-02-01T02:43:22;10.40;;;9.40;;
17310;SDS011;8773;43.300;0.394;2023-02-01T02:46:12;10.63;;;9.73;;
17310;SDS011;8773;43.300;0.394;2023-02-01T02:49:08;11.40;;;10.10;;
17310;SDS011;8773;43.300;0.394;2023-02-01T02:51:42;10.53;;;9.53;;
17310;SDS011;8773;43.300;0.394;2023-02-01T02:54:32;10.87;;;9.87;;
17310;SDS011;8773;43.300;0.394;2023-02-01T02:57:14;10.43;;;9.43;;
17310;SDS011;8773;43.300;0.394;2023-02-01T03:00:04;10.50;;;9.43;;
17310;SDS011;8773;43.300;0.394;2023-02-01T03:02:53;10.40;;;9.30;;
17310;SDS011;8773;43.300;0.394;2023-02-01T03:05:40;11.07;;;9.97;;
17310;SDS011;8773;43.300;0.394;2023-02-01T03:08:13;10.33;;;9.43;;
17310;SDS011;8773;43.300;0.394;2023-02-01T03:10:44;10.77;;;9.43;;
17310;SDS011;8773;43.300;0.394;2023-02-01T03:13:20;12.03;;;10.80;;
17310;SDS011;8773;43.300;0.394;2023-02-01T03:15:55;10.97;;;9.83;;
17310;SDS011;8773;43.300;0.394;2023-02-01T03:18:28;10.33;;;9.40;;
17310;SDS011;8773;43.300;0.394;2023-02-01T03:21:02;10.37;;;9.57;;
17310;SDS011;8773;43.300;0.394;2023-02-01T03:23:37;10.40;;;9.40;;
17310;SDS011;8773;43.300;0.394;2023-02-01T03:26:07;10.50;;;9.60;;
17310;SDS011;8773;43.300;0.394;2023-02-01T03:28:42;11.27;;;10.20;;
17310;SDS011;8773;43.300;0.394;2023-02-01T03:31:15;10.03;;;8.93;;
17310;SDS011;8773;43.300;0.394;2023-02-01T03:33:44;18.77;;;12.50;;
17310;SDS011;8773;43.300;0.394;2023-02-01T03:36:15;12.67;;;10.93;;
17310;SDS011;8773;43.300;0.394;2023-02-01T03:38:52;13.07;;;8.77;;
17310;SDS011;8773;43.300;0.394;2023-02-01T03:41:27;9.30;;;8.57;;
17310;SDS011;8773;43.300;0.394;2023-02-01T03:44:01;10.00;;;9.00;;
17310;SDS011;8773;43.300;0.394;2023-02-01T03:46:37;11.73;;;9.47;;
17310;SDS011;8773;43.300;0.394;2023-02-01T03:49:09;10.37;;;9.50;;
17310;SDS011;8773;43.300;0.394;2023-02-01T03:51:42;10.17;;;9.17;;
17310;SDS011;8773;43.300;0.394;2023-02-01T03:54:12;9.93;;;9.13;;
17310;SDS011;8773;43.300;0.394;2023-02-01T03:56:43;10.93;;;9.80;;
17310;SDS011;8773;43.300;0.394;2023-02-01T03:59:13;10.87;;;9.70;;
17310;SDS011;8773;43.300;0.394;2023-02-01T04:01:42;11.13;;;10.03;;
17310;SDS011;8773;43.300;0.394;2023-02-01T04:04:10;10.97;;;9.97;;
17310;SDS011;8773;43.300;0.394;2023-02-01T04:06:46;12.23;;;10.70;;
17310;SDS011;8773;43.300;0.394;2023-02-01T04:09:16;11.23;;;10.13;;
17310;SDS011;8773;43.300;0.394;2023-02-01T04:11:44;10.67;;;9.67;;
17310;SDS011;8773;43.300;0.394;2023-02-01T04:14:12;10.93;;;9.90;;
17310;SDS011;8773;43.300;0.394;2023-02-01T04:16:40;10.73;;;9.73;;
17310;SDS011;8773;43.300;0.394;2023-02-01T04:19:08;11.23;;;10.03;;
17310;SDS011;8773;43.300;0.394;2023-02-01T04:21:36;11.07;;;9.83;;
17310;SDS011;8773;43.300;0.394;2023-02-01T04:24:05;10.90;;;9.87;;
17310;SDS011;8773;43.300;0.394;2023-02-01T04:26:36;11.07;;;10.03;;
17310;SDS011;8773;43.300;0.394;2023-02-01T04:29:04;12.47;;;11.20;;
17310;SDS011;8773;43.300;0.394;2023-02-01T04:31:32;10.57;;;9.57;;
17310;SDS011;8773;43.300;0.394;2023-02-01T04:34:03;10.97;;;9.97;;
17310;SDS011;8773;43.300;0.394;2023-02-01T04:36:31;11.40;;;10.30;;
17310;SDS011;8773;43.300;0.394;2023-02-01T04:38:59;11.07;;;10.07;;
17310;SDS011;8773;43.300;0.394;2023-02-01T04:41:27;11.40;;;10.20;;
17310;SDS011;8773;43.300;0.394;2023-02-01T04:43:58;10.87;;;9.73;;
17310;SDS011;8773;43.300;0.394;2023-02-01T04:46:26;10.60;;;9.60;;
17310;SDS011;8773;43.300;0.394;2023-02-01T04:48:54;11.07;;;10.03;;
17310;SDS011;8773;43.300;0.394;2023-02-01T04:51:22;9.93;;;9.00;;
17310;SDS011;8773;43.300;0.394;2023-02-01T04:53:50;9.53;;;8.73;;
17310;SDS011;8773;43.300;0.394;2023-02-01T04:56:18;9.83;;;8.83;;
17310;SDS011;8773;43.300;0.394;2023-02-01T04:58:46;10.37;;;9.37;;
17310;SDS011;8773;43.300;0.394;2023-02-01T05:01:16;9.80;;;8.90;;
17310;SDS011;8773;43.300;0.394;2023-02-01T05:03:44;8.90;;;8.10;;
17310;SDS011;8773;43.300;0.394;2023-02-01T05:06:12;13.33;;;9.53;;
17310;SDS011;8773;43.300;0.394;2023-02-01T05:08:40;9.10;;;8.40;;
17310;SDS011;8773;43.300;0.394;2023-02-01T05:11:08;9.63;;;8.67;;
17310;SDS011;8773;43.300;0.394;2023-02-01T05:13:57;8.47;;;7.87;;
17310;SDS011;8773;43.300;0.394;2023-02-01T05:16:26;8.07;;;7.33;;
17310;SDS011;8773;43.300;0.394;2023-02-01T05:18:54;7.23;;;6.57;;
17310;SDS011;8773;43.300;0.394;2023-02-01T05:21:22;7.93;;;7.23;;
17310;SDS011;8773;43.300;0.394;2023-02-01T05:23:51;7.90;;;7.20;;
17310;SDS011;8773;43.300;0.394;2023-02-01T05:26:39;8.27;;;7.57;;
17310;SDS011;8773;43.300;0.394;2023-02-01T05:29:08;7.80;;;7.20;;
17310;SDS011;8773;43.300;0.394;2023-02-01T05:31:38;7.83;;;7.07;;
17310;SDS011;8773;43.300;0.394;2023-02-01T05:34:07;6.53;;;6.10;;
17310;SDS011;8773;43.300;0.394;2023-02-01T05:36:35;6.87;;;6.27;;
17310;SDS011;8773;43.300;0.394;2023-02-01T05:39:03;6.27;;;5.77;;
17310;SDS011;8773;43.300;0.394;2023-02-01T05:41:31;6.53;;;6.03;;
17310;SDS011;8773;43.300;0.394;2023-02-01T05:43:59;6.43;;;6.03;;
17310;SDS011;8773;43.300;0.394;2023-02-01T05:46:27;7.17;;;6.57;;
17310;SDS011;8773;43.300;0.394;2023-02-01T05:48:57;6.97;;;6.47;;
17310;SDS011;8773;43.300;0.394;2023-02-01T05:51:25;6.80;;;6.30;;
17310;SDS011;8773;43.300;0.394;2023-02-01T05:53:53;6.43;;;5.93;;
17310;SDS011;8773;43.300;0.394;2023-02-01T05:56:21;7.20;;;6.60;;
17310;SDS011;8773;43.300;0.394;2023-02-01T05:58:49;7.07;;;6.40;;
17310;SDS011;8773;43.300;0.394;2023-02-01T06:01:17;6.77;;;6.27;;
17310;SDS011;8773;43.300;0.394;2023-02-01T06:03:45;6.97;;;6.40;;
17310;SDS011;8773;43.300;0.394;2023-02-01T06:06:15;7.50;;;6.90;;
17310;SDS011;8773;43.300;0.394;2023-02-01T06:08:45;6.70;;;6.20;;
17310;SDS011;8773;43.300;0.394;2023-02-01T06:11:13;6.70;;;6.20;;
17310;SDS011;8773;43.300;0.394;2023-02-01T06:13:57;7.10;;;6.50;;
17310;SDS011;8773;43.300;0.394;2023-02-01T06:16:25;8.03;;;7.33;;
17310;SDS011;8773;43.300;0.394;2023-02-01T06:18:53;7.57;;;6.87;;
17310;SDS011;8773;43.300;0.394;2023-02-01T06:21:23;6.83;;;6.27;;
17310;SDS011;8773;43.300;0.394;2023-02-01T06:23:51;6.33;;;5.83;;
17310;SDS011;8773;43.300;0.394;2023-02-01T06:26:20;6.10;;;5.67;;
17310;SDS011;8773;43.300;0.394;2023-02-01T06:28:49;6.77;;;6.37;;
17310;SDS011;8773;43.300;0.394;2023-02-01T06:31:17;6.53;;;6.03;;
17310;SDS011;8773;43.300;0.394;2023-02-01T06:33:45;7.10;;;6.53;;
17310;SDS011;8773;43.300;0.394;2023-02-01T06:36:15;7.30;;;6.70;;
17310;SDS011;8773;43.300;0.394;2023-02-01T06:38:46;8.87;;;8.07;;
17310;SDS011;8773;43.300;0.394;2023-02-01T06:41:14;7.50;;;6.90;;
17310;SDS011;8773;43.300;0.394;2023-02-01T06:43:43;7.20;;;6.70;;
17310;SDS011;8773;43.300;0.394;2023-02-01T06:46:12;8.33;;;7.70;;
17310;SDS011;8773;43.300;0.394;2023-02-01T06:48:41;8.73;;;7.93;;
17310;SDS011;8773;43.300;0.394;2023-02-01T06:51:22;8.87;;;8.17;;
17310;SDS011;8773;43.300;0.394;2023-02-01T06:53:53;10.30;;;9.30;;
17310;SDS011;8773;43.300;0.394;2023-02-01T06:56:21;10.27;;;9.23;;
17310;SDS011;8773;43.300;0.394;2023-02-01T06:58:50;9.97;;;8.90;;
17310;SDS011;8773;43.300;0.394;2023-02-01T07:01:18;10.37;;;9.37;;
17310;SDS011;8773;43.300;0.394;2023-02-01T07:03:46;16.33;;;14.73;;
17310;SDS011;8773;43.300;0.394;2023-02-01T07:06:15;11.03;;;10.03;;
17310;SDS011;8773;43.300;0.394;2023-02-01T07:08:43;10.13;;;9.13;;
17310;SDS011;8773;43.300;0.394;2023-02-01T07:11:14;10.30;;;9.37;;
17310;SDS011;8773;43.300;0.394;2023-02-01T07:13:43;10.40;;;9.43;;
17310;SDS011;8773;43.300;0.394;2023-02-01T07:16:12;11.07;;;10.10;;
17310;SDS011;8773;43.300;0.394;2023-02-01T07:18:41;10.90;;;9.90;;
17310;SDS011;8773;43.300;0.394;2023-02-01T07:21:09;10.77;;;9.77;;
17310;SDS011;8773;43.300;0.394;2023-02-01T07:23:38;11.83;;;10.73;;
17310;SDS011;8773;43.300;0.394;2023-02-01T07:26:06;11.43;;;10.23;;
17310;SDS011;8773;43.300;0.394;2023-02-01T07:28:36;11.43;;;10.20;;
17310;SDS011;8773;43.300;0.394;2023-02-01T07:31:05;12.53;;;11.20;;
17310;SDS011;8773;43.300;0.394;2023-02-01T07:33:34;11.17;;;10.17;;
17310;SDS011;8773;43.300;0.394;2023-02-01T07:36:03;79.70;;;49.30;;
17310;SDS011;8773;43.300;0.394;2023-02-01T07:38:33;18.20;;;15.40;;
17310;SDS011;8773;43.300;0.394;2023-02-01T07:41:02;16.93;;;12.23;;
17310;SDS011;8773;43.300;0.394;2023-02-01T07:43:32;17.63;;;12.63;;
17310;SDS011;8773;43.300;0.394;2023-02-01T07:46:02;15.70;;;13.30;;
17310;SDS011;8773;43.300;0.394;2023-02-01T07:48:31;14.63;;;11.07;;
17310;SDS011;8773;43.300;0.394;2023-02-01T07:51:01;19.53;;;15.13;;
17310;SDS011;8773;43.300;0.394;2023-02-01T07:53:31;20.20;;;14.83;;
17310;SDS011;8773;43.300;0.394;2023-02-01T07:56:01;14.33;;;11.03;;
17310;SDS011;8773;43.300;0.394;2023-02-01T07:58:29;18.13;;;15.33;;
17310;SDS011;8773;43.300;0.394;2023-02-01T08:00:58;21.47;;;18.33;;
17310;SDS011;8773;43.300;0.394;2023-02-01T08:03:44;17.90;;;15.50;;
17310;SDS011;8773;43.300;0.394;2023-02-01T08:06:13;18.77;;;14.93;;
17310;SDS011;8773;43.300;0.394;2023-02-01T08:08:41;34.67;;;24.23;;
17310;SDS011;8773;43.300;0.394;2023-02-01T08:11:12;25.80;;;20.63;;
17310;SDS011;8773;43.300;0.394;2023-02-01T08:13:41;27.00;;;19.07;;
17310;SDS011;8773;43.300;0.394;2023-02-01T08:16:10;20.53;;;17.93;;
17310;SDS011;8773;43.300;0.394;2023-02-01T08:18:39;21.07;;;16.17;;
17310;SDS011;8773;43.300;0.394;2023-02-01T08:21:10;16.67;;;14.17;;
17310;SDS011;8773;43.300;0.394;2023-02-01T08:23:40;18.20;;;13.83;;
17310;SDS011;8773;43.300;0.394;2023-02-01T08:26:10;14.97;;;12.93;;
17310;SDS011;8773;43.300;0.394;2023-02-01T08:28:41;13.70;;;11.83;;
17310;SDS011;8773;43.300;0.394;2023-02-01T08:31:11;12.20;;;10.90;;
17310;SDS011;8773;43.300;0.394;2023-02-01T08:33:42;10.80;;;9.80;;
17310;SDS011;8773;43.300;0.394;2023-02-01T08:36:13;11.43;;;10.33;;
17310;SDS011;8773;43.300;0.394;2023-02-01T08:38:41;11.30;;;10.30;;
17310;SDS011;8773;43.300;0.394;2023-02-01T08:41:10;10.03;;;9.30;;
17310;SDS011;8773;43.300;0.394;2023-02-01T08:43:41;11.73;;;10.63;;
17310;SDS011;8773;43.300;0.394;2023-02-01T08:46:09;12.70;;;11.37;;
17310;SDS011;8773;43.300;0.394;2023-02-01T08:48:39;12.13;;;10.53;;
17310;SDS011;8773;43.300;0.394;2023-02-01T08:51:09;13.03;;;11.73;;
17310;SDS011;8773;43.300;0.394;2023-02-01T08:53:40;12.60;;;11.30;;
17310;SDS011;8773;43.300;0.394;2023-02-01T08:56:09;12.87;;;11.57;;
17310;SDS011;8773;43.300;0.394;2023-02-01T08:58:39;12.73;;;11.53;;
17310;SDS011;8773;43.300;0.394;2023-02-01T09:01:08;12.23;;;11.03;;
17310;SDS011;8773;43.300;0.394;2023-02-01T09:03:38;11.73;;;10.67;;
17310;SDS011;8773;43.300;0.394;2023-02-01T09:06:07;14.30;;;11.13;;
17310;SDS011;8773;43.300;0.394;2023-02-01T09:08:36;12.83;;;11.10;;
17310;SDS011;8773;43.300;0.394;2023-02-01T09:11:09;11.97;;;10.77;;
17310;SDS011;8773;43.300;0.394;2023-02-01T09:13:40;11.00;;;10.07;;
17310;SDS011;8773;43.300;0.394;2023-02-01T09:16:08;11.77;;;9.90;;
17310;SDS011;8773;43.300;0.394;2023-02-01T09:18:36;9.50;;;8.50;;
17310;SDS011;8773;43.300;0.394;2023-02-01T09:21:21;10.27;;;9.17;;
17310;SDS011;8773;43.300;0.394;2023-02-01T09:23:50;9.67;;;8.90;;
17310;SDS011;8773;43.300;0.394;2023-02-01T09:26:19;8.97;;;8.17;;
17310;SDS011;8773;43.300;0.394;2023-02-01T09:28:57;9.53;;;8.00;;
17310;SDS011;8773;43.300;0.394;2023-02-01T09:31:26;9.37;;;8.47;;
17310;SDS011;8773;43.300;0.394;2023-02-01T09:33:56;7.53;;;6.83;;
17310;SDS011;8773;43.300;0.394;2023-02-01T09:36:24;9.10;;;8.30;;
17310;SDS011;8773;43.300;0.394;2023-02-01T09:38:56;8.57;;;7.87;;
17310;SDS011;8773;43.300;0.394;2023-02-01T09:41:32;7.10;;;6.43;;
17310;SDS011;8773;43.300;0.394;2023-02-01T09:44:13;7.70;;;7.10;;
17310;SDS011;8773;43.300;0.394;2023-02-01T09:47:08;7.90;;;7.20;;
17310;SDS011;8773;43.300;0.394;2023-02-01T09:49:39;7.10;;;6.00;;
17310;SDS011;8773;43.300;0.394;2023-02-01T09:52:20;6.83;;;6.23;;
17310;SDS011;8773;43.300;0.394;2023-02-01T09:54:57;7.23;;;6.53;;
17310;SDS011;8773;43.300;0.394;2023-02-01T09:57:35;6.60;;;6.07;;
17310;SDS011;8773;43.300;0.394;2023-02-01T10:00:13;6.30;;;5.80;;
17310;SDS011;8773;43.300;0.394;2023-02-01T10:02:45;6.70;;;6.10;;
17310;SDS011;8773;43.300;0.394;2023-02-01T10:05:15;6.50;;;6.10;;
17310;SDS011;8773;43.300;0.394;2023-02-01T10:07:51;6.47;;;5.93;;
17310;SDS011;8773;43.300;0.394;2023-02-01T10:10:29;5.80;;;5.33;;
17310;SDS011;8773;43.300;0.394;2023-02-01T10:13:09;5.73;;;5.27;;
17310;SDS011;8773;43.300;0.394;2023-02-01T10:15:49;5.17;;;4.80;;
17310;SDS011;8773;43.300;0.394;2023-02-01T10:21:37;7.07;;;5.13;;
17310;SDS011;8773;43.300;0.394;2023-02-01T10:24:24;5.60;;;4.70;;
17310;SDS011;8773;43.300;0.394;2023-02-01T10:27:17;5.50;;;5.00;;
17310;SDS011;8773;43.300;0.394;2023-02-01T10:29:51;3.93;;;3.63;;
17310;SDS011;8773;43.300;0.394;2023-02-01T10:32:28;5.33;;;4.87;;
17310;SDS011;8773;43.300;0.394;2023-02-01T10:34:59;4.83;;;4.40;;
17310;SDS011;8773;43.300;0.394;2023-02-01T10:37:29;3.53;;;3.23;;
17310;SDS011;8773;43.300;0.394;2023-02-01T10:39:59;3.10;;;2.90;;
17310;SDS011;8773;43.300;0.394;2023-02-01T10:42:31;3.70;;;3.30;;
17310;SDS011;8773;43.300;0.394;2023-02-01T10:45:02;5.53;;;4.13;;
17310;SDS011;8773;43.300;0.394;2023-02-01T10:47:31;5.67;;;5.23;;
17310;SDS011;8773;43.300;0.394;2023-02-01T10:50:02;4.67;;;4.27;;
17310;SDS011;8773;43.300;0.394;2023-02-01T10:52:42;4.87;;;3.80;;
17310;SDS011;8773;43.300;0.394;2023-02-01T10:58:06;3.80;;;3.57;;
17310;SDS011;8773;43.300;0.394;2023-02-01T11:00:44;3.83;;;3.43;;
17310;SDS011;8773;43.300;0.394;2023-02-01T11:06:11;4.27;;;3.83;;
17310;SDS011;8773;43.300;0.394;2023-02-01T11:08:55;4.83;;;3.73;;
17310;SDS011;8773;43.300;0.394;2023-02-01T11:11:24;3.97;;;3.67;;
17310;SDS011;8773;43.300;0.394;2023-02-01T11:13:54;4.13;;;3.30;;
17310;SDS011;8773;43.300;0.394;2023-02-01T11:16:30;3.93;;;3.70;;
17310;SDS011;8773;43.300;0.394;2023-02-01T11:19:02;4.23;;;3.93;;
17310;SDS011;8773;43.300;0.394;2023-02-01T11:21:31;3.60;;;3.30;;
17310;SDS011;8773;43.300;0.394;2023-02-01T11:24:00;2.83;;;2.63;;
17310;SDS011;8773;43.300;0.394;2023-02-01T11:26:30;2.40;;;2.20;;
17310;SDS011;8773;43.300;0.394;2023-02-01T11:29:01;3.00;;;2.80;;
17310;SDS011;8773;43.300;0.394;2023-02-01T11:31:33;2.40;;;2.20;;
17310;SDS011;8773;43.300;0.394;2023-02-01T11:34:05;2.43;;;2.20;;
17310;SDS011;8773;43.300;0.394;2023-02-01T11:36:36;2.00;;;1.77;;
17310;SDS011;8773;43.300;0.394;2023-02-01T11:39:09;2.42;;;2.22;;
17310;SDS011;8773;43.300;0.394;2023-02-01T11:42:01;2.27;;;2.10;;
17310;SDS011;8773;43.300;0.394;2023-02-01T11:44:33;2.33;;;2.23;;
17310;SDS011;8773;43.300;0.394;2023-02-01T11:47:21;2.63;;;2.00;;
17310;SDS011;8773;43.300;0.394;2023-02-01T11:49:53;2.50;;;1.97;;
17310;SDS011;8773;43.300;0.394;2023-02-01T11:52:37;3.10;;;2.80;;
17310;SDS011;8773;43.300;0.394;2023-02-01T11:55:15;3.43;;;2.67;;
17310;SDS011;8773;43.300;0.394;2023-02-01T11:57:56;2.83;;;2.43;;
17310;SDS011;8773;43.300;0.394;2023-02-01T12:00:35;3.37;;;2.83;;
17310;SDS011;8773;43.300;0.394;2023-02-01T12:06:18;3.23;;;2.93;;
17310;SDS011;8773;43.300;0.394;2023-02-01T12:09:05;2.57;;;2.37;;
17310;SDS011;8773;43.300;0.394;2023-02-01T12:11:48;3.37;;;2.53;;
17310;SDS011;8773;43.300;0.394;2023-02-01T12:14:42;2.50;;;2.30;;
17310;SDS011;8773;43.300;0.394;2023-02-01T12:17:30;1.87;;;1.77;;
17310;SDS011;8773;43.300;0.394;2023-02-01T12:20:15;2.30;;;1.90;;
17310;SDS011;8773;43.300;0.394;2023-02-01T12:22:55;1.77;;;1.67;;
17310;SDS011;8773;43.300;0.394;2023-02-01T12:25:36;1.90;;;1.80;;
17310;SDS011;8773;43.300;0.394;2023-02-01T12:31:41;1.90;;;1.70;;
17310;SDS011;8773;43.300;0.394;2023-02-01T12:37:29;2.17;;;1.93;;
17310;SDS011;8773;43.300;0.394;2023-02-01T12:43:22;2.13;;;2.03;;
17310;SDS011;8773;43.300;0.394;2023-02-01T12:46:25;1.60;;;1.60;;
17310;SDS011;8773;43.300;0.394;2023-02-01T12:49:14;1.80;;;1.70;;
17310;SDS011;8773;43.300;0.394;2023-02-01T12:51:54;1.70;;;1.60;;
17310;SDS011;8773;43.300;0.394;2023-02-01T12:54:29;1.67;;;1.57;;
17310;SDS011;8773;43.300;0.394;2023-02-01T12:57:03;1.37;;;1.33;;
17310;SDS011;8773;43.300;0.394;2023-02-01T12:59:36;2.47;;;2.27;;
17310;SDS011;8773;43.300;0.394;2023-02-01T13:02:11;1.50;;;1.50;;
17310;SDS011;8773;43.300;0.394;2023-02-01T13:04:48;1.33;;;1.23;;
17310;SDS011;8773;43.300;0.394;2023-02-01T13:07:25;1.03;;;1.03;;
17310;SDS011;8773;43.300;0.394;2023-02-01T13:10:01;1.13;;;1.13;;
17310;SDS011;8773;43.300;0.394;2023-02-01T13:12:36;1.50;;;1.40;;
17310;SDS011;8773;43.300;0.394;2023-02-01T13:15:10;1.70;;;1.60;;
17310;SDS011;8773;43.300;0.394;2023-02-01T13:17:43;1.90;;;1.77;;
17310;SDS011;8773;43.300;0.394;2023-02-01T13:20:16;1.83;;;1.73;;
17310;SDS011;8773;43.300;0.394;2023-02-01T13:22:50;1.20;;;1.20;;
17310;SDS011;8773;43.300;0.394;2023-02-01T13:25:26;1.00;;;1.00;;
17310;SDS011;8773;43.300;0.394;2023-02-01T13:28:00;1.00;;;1.00;;
17310;SDS011;8773;43.300;0.394;2023-02-01T13:30:36;2.00;;;1.53;;
17310;SDS011;8773;43.300;0.394;2023-02-01T13:33:29;14.87;;;10.90;;
17310;SDS011;8773;43.300;0.394;2023-02-01T13:42:21;6.87;;;6.47;;
17310;SDS011;8773;43.300;0.394;2023-02-01T13:44:55;1.60;;;1.50;;
17310;SDS011;8773;43.300;0.394;2023-02-01T13:47:27;30.53;;;17.93;;
17310;SDS011;8773;43.300;0.394;2023-02-01T13:50:00;30.53;;;18.30;;
17310;SDS011;8773;43.300;0.394;2023-02-01T13:52:34;8.40;;;6.30;;
17310;SDS011;8773;43.300;0.394;2023-02-01T13:55:15;1.50;;;1.40;;
17310;SDS011;8773;43.300;0.394;2023-02-01T13:58:01;4.57;;;2.60;;
17310;SDS011;8773;43.300;0.394;2023-02-01T14:00:32;10.67;;;5.30;;
17310;SDS011;8773;43.300;0.394;2023-02-01T14:06:14;1.60;;;1.50;;
17310;SDS011;8773;43.300;0.394;2023-02-01T14:08:45;3.83;;;2.37;;
17310;SDS011;8773;43.300;0.394;2023-02-01T14:11:38;1.30;;;1.20;;
17310;SDS011;8773;43.300;0.394;2023-02-01T14:23:28;1.37;;;1.27;;
17310;SDS011;8773;43.300;0.394;2023-02-01T14:28:58;1.40;;;1.30;;
17310;SDS011;8773;43.300;0.394;2023-02-01T14:31:41;1.63;;;1.53;;
17310;SDS011;8773;43.300;0.394;2023-02-01T14:34:19;1.40;;;1.30;;
17310;SDS011;8773;43.300;0.394;2023-02-01T14:36:54;2.63;;;2.43;;
17310;SDS011;8773;43.300;0.394;2023-02-01T14:39:27;1.73;;;1.30;;
17310;SDS011;8773;43.300;0.394;2023-02-01T14:42:03;1.77;;;1.67;;
17310;SDS011;8773;43.300;0.394;2023-02-01T14:44:41;2.00;;;1.27;;
17310;SDS011;8773;43.300;0.394;2023-02-01T14:47:28;1.70;;;1.70;;
17310;SDS011;8773;43.300;0.394;2023-02-01T14:53:01;1.50;;;1.40;;
17310;SDS011;8773;43.300;0.394;2023-02-01T14:55:39;1.60;;;1.50;;
17310;SDS011;8773;43.300;0.394;2023-02-01T14:58:13;1.57;;;1.47;;
17310;SDS011;8773;43.300;0.394;2023-02-01T15:00:51;2.27;;;2.17;;
17310;SDS011;8773;43.300;0.394;2023-02-01T15:03:25;1.63;;;1.30;;
17310;SDS011;8773;43.300;0.394;2023-02-01T15:06:19;2.10;;;1.90;;
17310;SDS011;8773;43.300;0.394;2023-02-01T15:08:54;1.80;;;1.40;;
17310;SDS011;8773;43.300;0.394;2023-02-01T15:11:25;4.13;;;3.27;;
17310;SDS011;8773;43.300;0.394;2023-02-01T15:13:53;2.73;;;2.07;;
17310;SDS011;8773;43.300;0.394;2023-02-01T15:16:23;1.97;;;1.87;;
17310;SDS011;8773;43.300;0.394;2023-02-01T15:19:10;2.00;;;1.90;;
17310;SDS011;8773;43.300;0.394;2023-02-01T15:21:45;2.37;;;2.17;;
17310;SDS011;8773;43.300;0.394;2023-02-01T15:24:17;2.40;;;1.80;;
17310;SDS011;8773;43.300;0.394;2023-02-01T15:26:47;1.70;;;1.60;;
17310;SDS011;8773;43.300;0.394;2023-02-01T15:29:16;2.10;;;1.90;;
17310;SDS011;8773;43.300;0.394;2023-02-01T15:31:46;2.70;;;2.50;;
17310;SDS011;8773;43.300;0.394;2023-02-01T15:34:17;2.50;;;2.30;;
17310;SDS011;8773;43.300;0.394;2023-02-01T15:36:46;3.10;;;2.70;;
17310;SDS011;8773;43.300;0.394;2023-02-01T15:39:29;3.73;;;3.43;;
17310;SDS011;8773;43.300;0.394;2023-02-01T15:41:59;4.23;;;3.83;;
17310;SDS011;8773;43.300;0.394;2023-02-01T15:44:38;2.63;;;2.40;;
17310;SDS011;8773;43.300;0.394;2023-02-01T15:47:10;4.83;;;4.30;;
17310;SDS011;8773;43.300;0.394;2023-02-01T15:49:44;3.10;;;2.90;;
17310;SDS011;8773;43.300;0.394;2023-02-01T15:52:21;5.20;;;4.20;;
17310;SDS011;8773;43.300;0.394;2023-02-01T15:54:52;3.00;;;2.80;;
17310;SDS011;8773;43.300;0.394;2023-02-01T15:57:23;2.40;;;2.20;;
17310;SDS011;8773;43.300;0.394;2023-02-01T15:59:57;4.80;;;4.40;;
17310;SDS011;8773;43.300;0.394;2023-02-01T16:02:29;4.33;;;3.50;;
17310;SDS011;8773;43.300;0.394;2023-02-01T16:05:03;2.67;;;2.50;;
17310;SDS011;8773;43.300;0.394;2023-02-01T16:07:33;3.07;;;2.83;;
17310;SDS011;8773;43.300;0.394;2023-02-01T16:10:02;2.63;;;2.30;;
17310;SDS011;8773;43.300;0.394;2023-02-01T16:12:50;3.00;;;2.70;;
17310;SDS011;8773;43.300;0.394;2023-02-01T16:15:24;5.57;;;4.80;;
17310;SDS011;8773;43.300;0.394;2023-02-01T16:17:52;2.80;;;2.60;;
17310;SDS011;8773;43.300;0.394;2023-02-01T16:20:21;12.17;;;7.00;;
17310;SDS011;8773;43.300;0.394;2023-02-01T16:22:49;4.67;;;3.53;;